Time;durP1;ratioP1;P1;durP2;ratioP2;P2;SDS_P1;SDS_P2;PMS_P1;PMS_P2;Temp;Humidity;BMP_temperature;BMP_pressure;BME280_temperature;BME280_humidity;BME280_pressure;Samples;Min_cycle;Max_cycle;Signal;HPM_P1;HPM_P2
2022/04/23 00:01:51;;;;;;;3.75;3.45;;;;;;;;;;5057612;28;20205;-56
2022/04/23 00:04:18;;;;;;;3.40;3.20;;;;;;;;;;5057869;28;20212;-56
2022/04/23 00:06:48;;;;;;;3.97;3.67;;;;;;;;;;5057357;28;20270;-56
2022/04/23 00:09:15;;;;;;;3.70;3.40;;;;;;;;;;5057376;28;20267;-56
2022/04/23 00:11:43;;;;;;;3.50;3.30;;;;;;;;;;5043230;28;20213;-56
2022/04/23 00:14:10;;;;;;;3.60;3.40;;;;;;;;;;5037202;28;20205;-56
2022/04/23 00:16:38;;;;;;;3.60;3.40;;;;;;;;;;5037240;28;20201;-56
2022/04/23 00:19:05;;;;;;;3.95;3.65;;;;;;;;;;5037785;28;20206;-56
2022/04/23 00:21:33;;;;;;;3.75;3.47;;;;;;;;;;5037323;28;20209;-56
2022/04/23 00:24:01;;;;;;;3.60;3.33;;;;;;;;;;5036949;28;20212;-56
2022/04/23 00:26:29;;;;;;;3.97;3.67;;;;;;;;;;5036925;28;20580;-56
2022/04/23 00:28:56;;;;;;;3.58;3.38;;;;;;;;;;5036823;28;20212;-56
2022/04/23 00:31:24;;;;;;;3.58;3.38;;;;;;;;;;5041944;28;20510;-56
2022/04/23 00:33:52;;;;;;;3.90;3.70;;;;;;;;;;5056727;28;20204;-56
2022/04/23 00:36:20;;;;;;;3.90;3.60;;;;;;;;;;5056553;28;20629;-56
2022/04/23 00:38:49;;;;;;;3.72;3.42;;;;;;;;;;5048152;28;20211;-56
2022/04/23 00:44:00;;;;;;;3.72;3.45;;;;;;;;;;5037073;28;20201;-56
2022/04/23 00:46:27;;;;;;;4.10;3.80;;;;;;;;;;5048203;28;20280;-56
2022/04/23 00:48:55;;;;;;;3.90;3.60;;;;;;;;;;5056402;28;20201;-56
2022/04/23 00:51:22;;;;;;;3.60;3.40;;;;;;;;;;5056057;28;20237;-56
2022/04/23 00:53:51;;;;;;;3.53;3.33;;;;;;;;;;5056164;28;20208;-56
2022/04/23 00:56:20;;;;;;;4.10;3.80;;;;;;;;;;5055643;28;20754;-56
2022/04/23 00:58:48;;;;;;;3.70;3.40;;;;;;;;;;5055619;28;20205;-56
2022/04/23 01:01:15;;;;;;;3.90;3.60;;;;;;;;;;5055466;28;20205;-56
2022/04/23 01:03:43;;;;;;;4.10;3.80;;;;;;;;;;5036547;28;20201;-56
2022/04/23 01:06:11;;;;;;;4.00;3.70;;;;;;;;;;5036442;28;20202;-56
2022/04/23 01:08:39;;;;;;;3.80;3.50;;;;;;;;;;5048449;28;20209;-56
2022/04/23 01:11:06;;;;;;;3.67;3.40;;;;;;;;;;5056468;28;20575;-56
2022/04/23 01:13:35;;;;;;;3.75;3.55;;;;;;;;;;5056147;28;20745;-56
2022/04/23 01:16:04;;;;;;;3.50;3.30;;;;;;;;;;5056598;28;20224;-57
2022/04/23 01:18:32;;;;;;;3.80;3.50;;;;;;;;;;5055960;28;20223;-56
2022/04/23 01:21:01;;;;;;;3.55;3.35;;;;;;;;;;5054102;28;20211;-56
2022/04/23 01:23:29;;;;;;;3.67;3.38;;;;;;;;;;5036596;28;20198;-56
2022/04/23 01:25:56;;;;;;;3.35;3.15;;;;;;;;;;5037191;28;20209;-57
2022/04/23 01:28:24;;;;;;;3.47;3.28;;;;;;;;;;5036494;28;20225;-56
2022/04/23 01:30:52;;;;;;;3.45;3.17;;;;;;;;;;5036701;28;20626;-56
2022/04/23 01:33:20;;;;;;;3.35;3.15;;;;;;;;;;5044056;28;20198;-56
2022/04/23 01:35:47;;;;;;;3.47;3.25;;;;;;;;;;5036564;28;20225;-56
2022/04/23 01:38:16;;;;;;;3.42;3.22;;;;;;;;;;5045108;28;20201;-56
2022/04/23 01:40:43;;;;;;;3.92;3.63;;;;;;;;;;5053691;28;20222;-56
2022/04/23 01:43:11;;;;;;;3.97;3.67;;;;;;;;;;5037369;28;20205;-56
2022/04/23 01:45:39;;;;;;;3.92;3.63;;;;;;;;;;5050609;28;20198;-56
2022/04/23 01:48:07;;;;;;;3.70;3.40;;;;;;;;;;5036067;28;20507;-56
2022/04/23 01:50:35;;;;;;;3.70;3.40;;;;;;;;;;5033498;28;20230;-57
2022/04/23 01:53:02;;;;;;;4.03;3.72;;;;;;;;;;5036272;28;20202;-56
2022/04/23 01:55:31;;;;;;;3.67;3.45;;;;;;;;;;5037303;28;20217;-56
2022/04/23 01:57:59;;;;;;;3.83;3.63;;;;;;;;;;5041913;28;20197;-56
2022/04/23 02:00:26;;;;;;;3.65;3.40;;;;;;;;;;5042133;28;20206;-57
2022/04/23 02:02:54;;;;;;;3.70;3.50;;;;;;;;;;5039803;28;20205;-56
2022/04/23 02:05:22;;;;;;;3.55;3.35;;;;;;;;;;5060255;28;20204;-56
2022/04/23 02:07:49;;;;;;;3.85;3.55;;;;;;;;;;5059865;28;20215;-56
2022/04/23 02:10:17;;;;;;;3.92;3.65;;;;;;;;;;5059975;28;20205;-56
2022/04/23 02:12:46;;;;;;;4.00;3.70;;;;;;;;;;5059782;28;20715;-56
2022/04/23 02:15:15;;;;;;;3.80;3.50;;;;;;;;;;5058037;28;20225;-56
2022/04/23 02:17:43;;;;;;;3.38;3.17;;;;;;;;;;5040098;28;20217;-56
2022/04/23 02:20:11;;;;;;;3.85;3.55;;;;;;;;;;5039752;28;20210;-56
2022/04/23 02:22:39;;;;;;;3.80;3.50;;;;;;;;;;5040117;28;20212;-56
2022/04/23 02:25:07;;;;;;;3.75;3.45;;;;;;;;;;5039890;28;20201;-57
2022/04/23 02:27:42;;;;;;;3.45;3.25;;;;;;;;;;5039913;28;20244;-56
2022/04/23 02:30:12;;;;;;;3.53;3.33;;;;;;;;;;5040098;28;20212;-56
2022/04/23 02:32:41;;;;;;;3.67;3.40;;;;;;;;;;5047314;28;20220;-57
2022/04/23 02:35:08;;;;;;;3.80;3.50;;;;;;;;;;5050965;28;20634;-57
2022/04/23 02:37:36;;;;;;;3.83;3.53;;;;;;;;;;5041603;28;20213;-57
2022/04/23 02:40:03;;;;;;;3.30;3.10;;;;;;;;;;5039513;28;20201;-56
2022/04/23 02:42:31;;;;;;;3.78;3.53;;;;;;;;;;5042017;28;20198;-57
2022/04/23 02:45:03;;;;;;;3.78;3.47;;;;;;;;;;5059242;28;20216;-56
2022/04/23 02:47:32;;;;;;;3.55;3.33;;;;;;;;;;5056238;28;20271;-56
2022/04/23 02:50:00;;;;;;;3.90;3.60;;;;;;;;;;5059257;28;20205;-56
2022/04/23 02:52:28;;;;;;;3.58;3.38;;;;;;;;;;5058561;28;20777;-56
2022/04/23 02:54:55;;;;;;;3.80;3.55;;;;;;;;;;5059303;28;20275;-56
2022/04/23 02:57:22;;;;;;;3.30;3.10;;;;;;;;;;5054682;28;20197;-57
2022/04/23 02:59:50;;;;;;;4.05;3.75;;;;;;;;;;5039210;28;20619;-56
2022/04/23 03:02:17;;;;;;;3.70;3.40;;;;;;;;;;5039191;28;20198;-56
2022/04/23 03:04:47;;;;;;;3.85;3.55;;;;;;;;;;5043261;28;20478;-57
2022/04/23 03:07:14;;;;;;;3.70;3.50;;;;;;;;;;5056360;28;20193;-56
2022/04/23 03:09:43;;;;;;;4.00;3.70;;;;;;;;;;5038826;28;20206;-56
2022/04/23 03:12:12;;;;;;;3.80;3.60;;;;;;;;;;5038701;28;20205;-56
2022/04/23 03:14:40;;;;;;;4.03;3.72;;;;;;;;;;5038685;28;20198;-56
2022/04/23 03:17:08;;;;;;;3.70;3.40;;;;;;;;;;5040221;28;20506;-57
2022/04/23 03:19:35;;;;;;;3.70;3.40;;;;;;;;;;5038750;28;20197;-56
2022/04/23 03:22:04;;;;;;;3.70;3.50;;;;;;;;;;5039494;28;20510;-56
2022/04/23 03:24:32;;;;;;;3.58;3.38;;;;;;;;;;5057180;28;20197;-57
2022/04/23 03:26:59;;;;;;;3.97;3.67;;;;;;;;;;5057119;28;20201;-56
2022/04/23 03:29:26;;;;;;;3.67;3.47;;;;;;;;;;5056866;28;20208;-56
2022/04/23 03:31:55;;;;;;;3.60;3.40;;;;;;;;;;5057598;28;20205;-57
2022/04/23 03:34:22;;;;;;;3.80;3.50;;;;;;;;;;5038297;28;20209;-56
2022/04/23 03:36:50;;;;;;;4.10;3.80;;;;;;;;;;5052575;28;20225;-56
2022/04/23 03:39:18;;;;;;;3.80;3.50;;;;;;;;;;5049497;28;20212;-56
2022/04/23 03:41:46;;;;;;;3.85;3.58;;;;;;;;;;5058366;28;20295;-56
2022/04/23 03:44:13;;;;;;;4.13;3.83;;;;;;;;;;5042013;28;20595;-56
2022/04/23 03:46:40;;;;;;;3.92;3.63;;;;;;;;;;5038529;28;20209;-56
2022/04/23 03:49:08;;;;;;;3.75;3.53;;;;;;;;;;5040341;28;20202;-56
2022/04/23 03:51:35;;;;;;;3.55;3.35;;;;;;;;;;5038251;28;20237;-56
2022/04/23 03:54:03;;;;;;;4.05;3.75;;;;;;;;;;5037877;28;20202;-56
2022/04/23 03:56:32;;;;;;;4.03;3.72;;;;;;;;;;5038050;28;20229;-57
2022/04/23 03:59:00;;;;;;;4.10;3.80;;;;;;;;;;5045423;28;20223;-56
2022/04/23 04:01:28;;;;;;;3.60;3.40;;;;;;;;;;5057744;28;20204;-56
2022/04/23 04:03:55;;;;;;;3.80;3.60;;;;;;;;;;5045812;28;20489;-57
2022/04/23 04:06:23;;;;;;;3.65;3.45;;;;;;;;;;5037892;28;20203;-56
2022/04/23 04:08:51;;;;;;;4.07;3.78;;;;;;;;;;5037812;28;20312;-56
2022/04/23 04:11:18;;;;;;;3.58;3.38;;;;;;;;;;5037860;28;20213;-56
2022/04/23 04:13:47;;;;;;;3.90;3.60;;;;;;;;;;5037755;28;20198;-56
2022/04/23 04:16:14;;;;;;;3.90;3.60;;;;;;;;;;5041535;28;20229;-56
2022/04/23 04:18:42;;;;;;;3.63;3.35;;;;;;;;;;5037404;28;20206;-56
2022/04/23 04:21:09;;;;;;;3.58;3.38;;;;;;;;;;5037127;28;20217;-56
2022/04/23 04:23:37;;;;;;;3.92;3.63;;;;;;;;;;5036977;28;20198;-56
2022/04/23 04:26:05;;;;;;;4.03;3.72;;;;;;;;;;5036678;28;20205;-56
2022/04/23 04:28:32;;;;;;;3.72;3.45;;;;;;;;;;5047097;28;20197;-56
2022/04/23 04:33:45;;;;;;;3.35;3.08;;;;;;;;;;5056693;28;20287;-56
2022/04/23 04:36:13;;;;;;;3.67;3.47;;;;;;;;;;5056765;28;20233;-56
2022/04/23 04:38:40;;;;;;;3.80;3.50;;;;;;;;;;5043077;28;20496;-56
2022/04/23 04:41:08;;;;;;;3.50;3.30;;;;;;;;;;5052435;28;20607;-57
2022/04/23 04:43:36;;;;;;;3.78;3.47;;;;;;;;;;5056240;28;20656;-56
2022/04/23 04:46:04;;;;;;;3.63;3.38;;;;;;;;;;5056985;28;20216;-56
2022/04/23 04:48:32;;;;;;;3.83;3.53;;;;;;;;;;5051868;28;20208;-56
2022/04/23 04:50:59;;;;;;;3.78;3.53;;;;;;;;;;5056806;28;20236;-57
2022/04/23 04:53:27;;;;;;;4.13;3.83;;;;;;;;;;5056151;28;20201;-56
2022/04/23 04:55:54;;;;;;;3.65;3.45;;;;;;;;;;5056660;28;20228;-56
2022/04/23 04:58:21;;;;;;;4.10;3.80;;;;;;;;;;5045767;28;20205;-56
2022/04/23 05:00:49;;;;;;;4.00;3.70;;;;;;;;;;5036833;28;20279;-56
2022/04/23 05:03:19;;;;;;;3.60;3.33;;;;;;;;;;5036677;28;20198;-57
2022/04/23 05:05:46;;;;;;;4.03;3.72;;;;;;;;;;5036608;28;20205;-56
2022/04/23 05:08:13;;;;;;;3.60;3.40;;;;;;;;;;5040356;28;20212;-56
2022/04/23 05:10:41;;;;;;;3.50;3.30;;;;;;;;;;5042691;28;20208;-56
2022/04/23 05:13:08;;;;;;;3.67;3.47;;;;;;;;;;5055780;28;20205;-56
2022/04/23 05:15:37;;;;;;;3.63;3.40;;;;;;;;;;5056431;28;20205;-56
2022/04/23 05:18:04;;;;;;;4.15;3.75;;;;;;;;;;5045799;28;20212;-56
2022/04/23 05:20:33;;;;;;;3.88;3.58;;;;;;;;;;5056080;28;20573;-56
2022/04/23 05:23:01;;;;;;;3.80;3.50;;;;;;;;;;5044321;28;20201;-56
2022/04/23 05:25:29;;;;;;;3.58;3.38;;;;;;;;;;5037193;28;20555;-56
2022/04/23 05:27:56;;;;;;;3.80;3.50;;;;;;;;;;5041448;28;20197;-56
2022/04/23 05:30:23;;;;;;;3.53;3.30;;;;;;;;;;5054658;28;20205;-56
2022/04/23 05:32:51;;;;;;;3.70;3.50;;;;;;;;;;5055065;28;20216;-56
2022/04/23 05:35:18;;;;;;;3.83;3.53;;;;;;;;;;5056479;28;20205;-56
2022/04/23 05:37:47;;;;;;;3.85;3.60;;;;;;;;;;5054008;28;20221;-56
2022/04/23 05:40:15;;;;;;;3.53;3.33;;;;;;;;;;5060066;28;20205;-56
2022/04/23 05:42:42;;;;;;;3.42;3.22;;;;;;;;;;5043853;28;20197;-56
2022/04/23 05:45:10;;;;;;;3.60;3.30;;;;;;;;;;5040419;28;20236;-56
2022/04/23 05:47:41;;;;;;;3.65;3.40;;;;;;;;;;5054565;28;20213;-56
2022/04/23 05:50:09;;;;;;;3.63;3.33;;;;;;;;;;5039882;28;20797;-56
2022/04/23 05:52:37;;;;;;;3.70;3.40;;;;;;;;;;5039618;28;20234;-57
2022/04/23 05:55:07;;;;;;;3.63;3.33;;;;;;;;;;5039686;28;20239;-56
2022/04/23 05:57:34;;;;;;;3.33;3.13;;;;;;;;;;5044189;28;20217;-56
2022/04/23 06:00:01;;;;;;;3.97;3.67;;;;;;;;;;5047286;28;20201;-56
2022/04/23 06:02:29;;;;;;;3.67;3.38;;;;;;;;;;5040085;28;20568;-56
2022/04/23 06:04:57;;;;;;;3.60;3.40;;;;;;;;;;5058501;28;20201;-56
2022/04/23 06:07:24;;;;;;;3.70;3.47;;;;;;;;;;5059065;28;20205;-56
2022/04/23 06:09:52;;;;;;;3.60;3.40;;;;;;;;;;5059152;28;20301;-57
2022/04/23 06:12:21;;;;;;;3.58;3.38;;;;;;;;;;5059144;28;20205;-57
2022/04/23 06:14:49;;;;;;;3.55;3.35;;;;;;;;;;5059264;28;20216;-56
2022/04/23 06:17:17;;;;;;;4.07;3.78;;;;;;;;;;5038767;28;20321;-56
2022/04/23 06:19:44;;;;;;;3.47;3.25;;;;;;;;;;5039061;28;20213;-56
2022/04/23 06:22:12;;;;;;;3.53;3.33;;;;;;;;;;5039113;28;20212;-56
2022/04/23 06:24:39;;;;;;;3.88;3.58;;;;;;;;;;5039184;28;20205;-56
2022/04/23 06:27:06;;;;;;;3.63;3.42;;;;;;;;;;5039353;28;20205;-57
2022/04/23 06:29:36;;;;;;;3.97;3.67;;;;;;;;;;5054707;28;20201;-57
2022/04/23 06:32:03;;;;;;;3.55;3.35;;;;;;;;;;5054679;28;20320;-57
2022/04/23 06:34:31;;;;;;;3.95;3.65;;;;;;;;;;5038636;28;20198;-56
2022/04/23 06:36:58;;;;;;;3.90;3.60;;;;;;;;;;5039701;28;20232;-57
2022/04/23 06:39:25;;;;;;;3.92;3.67;;;;;;;;;;5042436;28;20516;-56
2022/04/23 06:41:53;;;;;;;3.28;3.08;;;;;;;;;;5054595;28;20194;-56
2022/04/23 06:44:20;;;;;;;3.97;3.67;;;;;;;;;;5039074;28;20198;-56
2022/04/23 06:46:49;;;;;;;3.80;3.50;;;;;;;;;;5039594;28;20202;-56
2022/04/23 06:49:16;;;;;;;3.97;3.67;;;;;;;;;;5040536;28;20541;-57
2022/04/23 06:51:44;;;;;;;3.53;3.33;;;;;;;;;;5037877;28;20242;-56
2022/04/23 06:54:12;;;;;;;3.90;3.60;;;;;;;;;;5039037;28;20209;-57
2022/04/23 06:56:39;;;;;;;4.18;3.88;;;;;;;;;;5054971;28;20340;-57
2022/04/23 06:59:07;;;;;;;4.00;3.70;;;;;;;;;;5050123;28;20509;-56
2022/04/23 07:01:34;;;;;;;3.67;3.40;;;;;;;;;;5055457;28;20503;-56
2022/04/23 07:04:03;;;;;;;3.60;3.30;;;;;;;;;;5035669;28;20220;-56
2022/04/23 07:06:30;;;;;;;4.40;4.00;;;;;;;;;;5035445;28;20205;-56
2022/04/23 07:08:58;;;;;;;3.72;3.42;;;;;;;;;;5027217;28;20198;-56
2022/04/23 07:11:25;;;;;;;4.03;3.72;;;;;;;;;;5036477;28;20205;-56
2022/04/23 07:13:53;;;;;;;3.80;3.50;;;;;;;;;;5035719;28;20766;-56
2022/04/23 07:16:20;;;;;;;3.85;3.55;;;;;;;;;;5035708;28;20202;-56
2022/04/23 07:18:48;;;;;;;3.85;3.55;;;;;;;;;;5035270;28;20588;-56
2022/04/23 07:21:17;;;;;;;4.20;3.80;;;;;;;;;;5035444;28;20201;-56
2022/04/23 07:26:29;;;;;;;4.20;3.80;;;;;;;;;;5035378;28;20599;-56
2022/04/23 07:28:57;;;;;;;4.25;3.85;;;;;;;;;;5035146;28;20492;-56
2022/04/23 07:31:24;;;;;;;4.05;3.75;;;;;;;;;;5036033;28;20213;-56
2022/04/23 07:39:24;;;;;;;4.30;3.92;;;;;;;;;;5034852;28;20197;-56
2022/04/23 07:41:54;;;;;;;3.97;3.67;;;;;;;;;;5035517;28;20553;-56
2022/04/23 07:44:22;;;;;;;4.35;3.92;;;;;;;;;;5035031;28;20533;-56
2022/04/23 07:46:49;;;;;;;4.18;3.83;;;;;;;;;;5050033;28;20197;-57
2022/04/23 07:49:17;;;;;;;4.00;3.70;;;;;;;;;;5039015;28;20287;-56
2022/04/23 07:51:47;;;;;;;3.60;3.40;;;;;;;;;;5033725;28;20241;-57
2022/04/23 07:54:15;;;;;;;4.07;3.78;;;;;;;;;;5033995;28;20240;-56
2022/04/23 07:56:43;;;;;;;4.40;4.00;;;;;;;;;;5035560;28;20318;-57
2022/04/23 07:59:11;;;;;;;3.70;3.40;;;;;;;;;;5032760;28;20477;-57
2022/04/23 08:01:38;;;;;;;4.30;4.00;;;;;;;;;;5034353;28;20210;-57
2022/04/23 08:04:06;;;;;;;4.00;3.70;;;;;;;;;;5034492;28;20202;-56
2022/04/23 08:06:34;;;;;;;3.83;3.53;;;;;;;;;;5034169;28;20268;-57
2022/04/23 08:09:03;;;;;;;4.07;3.78;;;;;;;;;;5034637;28;20206;-57
2022/04/23 08:11:31;;;;;;;4.05;3.75;;;;;;;;;;5035150;28;20237;-57
2022/04/23 08:13:58;;;;;;;4.40;4.10;;;;;;;;;;5034358;28;20271;-56
2022/04/23 08:16:29;;;;;;;4.20;3.90;;;;;;;;;;5034900;28;20290;-57
2022/04/23 08:18:56;;;;;;;4.28;3.92;;;;;;;;;;5034452;28;20599;-57
2022/04/23 08:21:24;;;;;;;4.22;3.92;;;;;;;;;;5034227;28;20209;-57
2022/04/23 08:23:52;;;;;;;4.00;3.70;;;;;;;;;;5034247;28;20611;-57
2022/04/23 08:26:20;;;;;;;4.15;3.85;;;;;;;;;;5033637;28;20206;-56
2022/04/23 08:31:33;;;;;;;3.85;3.55;;;;;;;;;;5042465;28;20490;-57
2022/04/23 08:34:00;;;;;;;4.00;3.70;;;;;;;;;;5053045;28;20197;-57
2022/04/23 08:36:31;;;;;;;4.20;3.90;;;;;;;;;;5051513;28;20222;-57
2022/04/23 08:38:59;;;;;;;4.25;3.90;;;;;;;;;;5044116;28;20231;-57
2022/04/23 08:41:29;;;;;;;3.80;3.53;;;;;;;;;;5048212;28;20197;-56
2022/04/23 08:44:05;;;;;;;4.20;3.90;;;;;;;;;;5053021;28;20228;-57
2022/04/23 08:46:33;;;;;;;4.40;4.00;;;;;;;;;;5051587;28;20207;-57
2022/04/23 08:49:08;;;;;;;3.72;3.53;;;;;;;;;;5048883;28;20216;-56
2022/04/23 08:51:36;;;;;;;4.20;3.90;;;;;;;;;;5049476;28;20239;-56
2022/04/23 08:54:07;;;;;;;3.88;3.58;;;;;;;;;;5032930;28;20220;-57
2022/04/23 08:56:37;;;;;;;4.07;3.78;;;;;;;;;;5017135;28;20208;-57
2022/04/23 08:59:06;;;;;;;4.07;3.78;;;;;;;;;;5050967;28;20260;-57
2022/04/23 09:01:34;;;;;;;4.10;3.80;;;;;;;;;;5052971;28;20208;-57
2022/04/23 09:04:02;;;;;;;4.32;4.03;;;;;;;;;;5033710;28;20213;-57
2022/04/23 09:06:36;;;;;;;3.90;3.60;;;;;;;;;;5032865;28;20240;-57
2022/04/23 09:09:07;;;;;;;4.43;4.10;;;;;;;;;;5044518;28;20199;-56
2022/04/23 09:11:37;;;;;;;4.30;4.00;;;;;;;;;;5053015;28;20219;-57
2022/04/23 09:14:04;;;;;;;4.20;3.90;;;;;;;;;;5053109;28;20586;-56
2022/04/23 09:25:05;;;;;;;4.28;3.97;;;;;;;;;;5033342;28;20215;-56
2022/04/23 09:27:34;;;;;;;4.25;3.95;;;;;;;;;;5033711;28;20190;-56
2022/04/23 09:30:02;;;;;;;4.00;3.63;;;;;;;;;;5051040;28;20212;-56
2022/04/23 09:32:30;;;;;;;4.57;4.28;;;;;;;;;;5046650;28;20496;-57
2022/04/23 09:35:07;;;;;;;4.05;3.75;;;;;;;;;;5033558;28;20205;-57
2022/04/23 09:40:21;;;;;;;4.38;3.97;;;;;;;;;;5031861;28;20219;-56
2022/04/23 09:43:01;;;;;;;4.15;3.85;;;;;;;;;;5036186;28;20597;-57
2022/04/23 09:45:29;;;;;;;4.20;3.90;;;;;;;;;;5042024;28;20477;-56
2022/04/23 09:47:57;;;;;;;4.32;4.03;;;;;;;;;;5044310;28;20201;-58
2022/04/23 09:50:24;;;;;;;4.28;3.97;;;;;;;;;;5031586;28;20205;-57
2022/04/23 09:52:53;;;;;;;4.57;4.18;;;;;;;;;;5012946;28;20209;-56
2022/04/23 09:55:24;;;;;;;4.05;3.75;;;;;;;;;;5013806;28;20206;-56
2022/04/23 09:57:52;;;;;;;4.35;4.05;;;;;;;;;;5017200;28;20222;-56
2022/04/23 10:00:21;;;;;;;4.13;3.83;;;;;;;;;;5024816;28;20201;-56
2022/04/23 10:02:50;;;;;;;4.25;3.95;;;;;;;;;;5031974;28;20213;-57
2022/04/23 10:05:19;;;;;;;4.20;3.90;;;;;;;;;;5013049;28;20206;-56
2022/04/23 10:07:49;;;;;;;4.20;3.90;;;;;;;;;;5011810;28;20611;-56
2022/04/23 10:10:18;;;;;;;4.05;3.75;;;;;;;;;;5013240;28;20261;-56
2022/04/23 10:12:46;;;;;;;3.80;3.60;;;;;;;;;;5012748;28;20230;-56
2022/04/23 10:15:14;;;;;;;4.40;4.10;;;;;;;;;;5013452;28;20202;-56
2022/04/23 10:17:44;;;;;;;4.20;3.90;;;;;;;;;;5032960;28;20553;-56
2022/04/23 10:20:13;;;;;;;4.38;4.07;;;;;;;;;;5026988;28;20202;-57
2022/04/23 10:22:53;;;;;;;4.05;3.75;;;;;;;;;;5012883;28;20213;-56
2022/04/23 10:25:24;;;;;;;4.07;3.78;;;;;;;;;;5016137;28;20225;-57
2022/04/23 10:27:52;;;;;;;4.05;3.75;;;;;;;;;;5021729;28;20457;-56
2022/04/23 10:30:19;;;;;;;4.05;3.75;;;;;;;;;;5020808;28;20202;-56
2022/04/23 10:32:48;;;;;;;4.20;3.80;;;;;;;;;;5017353;28;20221;-56
2022/04/23 10:35:34;;;;;;;3.90;3.60;;;;;;;;;;5036097;28;20220;-56
2022/04/23 10:38:19;;;;;;;4.07;3.78;;;;;;;;;;5035598;28;20295;-56
2022/04/23 10:40:46;;;;;;;4.40;4.10;;;;;;;;;;5035642;28;20308;-57
2022/04/23 10:43:19;;;;;;;3.97;3.67;;;;;;;;;;5035757;28;20230;-57
2022/04/23 10:45:48;;;;;;;3.80;3.50;;;;;;;;;;5035590;28;20202;-57
2022/04/23 10:48:29;;;;;;;4.50;3.70;;;;;;;;;;5025104;28;20198;-56
2022/04/23 10:51:00;;;;;;;3.90;3.70;;;;;;;;;;5031095;28;20232;-57
2022/04/23 10:53:49;;;;;;;4.30;4.00;;;;;;;;;;5053708;28;20201;-57
2022/04/23 10:56:17;;;;;;;4.53;4.20;;;;;;;;;;5053372;28;20259;-56
2022/04/23 10:58:44;;;;;;;3.80;3.50;;;;;;;;;;5038600;28;20482;-57
2022/04/23 11:01:21;;;;;;;4.10;3.80;;;;;;;;;;5035516;28;20201;-57
2022/04/23 11:04:07;;;;;;;3.50;3.30;;;;;;;;;;5034101;28;20205;-57
2022/04/23 11:12:32;;;;;;;3.85;3.58;;;;;;;;;;5035292;28;20205;-56
2022/04/23 11:15:00;;;;;;;4.10;3.80;;;;;;;;;;5034666;28;20267;-56
2022/04/23 11:17:44;;;;;;;4.45;4.05;;;;;;;;;;5035501;28;20313;-57
2022/04/23 11:20:12;;;;;;;4.38;3.97;;;;;;;;;;5027803;28;20207;-57
2022/04/23 11:22:39;;;;;;;3.75;3.40;;;;;;;;;;5052530;28;20202;-57
2022/04/23 11:25:09;;;;;;;4.20;3.80;;;;;;;;;;5036242;28;20220;-57
2022/04/23 11:27:38;;;;;;;6.10;3.95;;;;;;;;;;5039053;28;20542;-57
2022/04/23 11:30:06;;;;;;;4.30;3.92;;;;;;;;;;5056671;28;20238;-57
2022/04/23 11:32:35;;;;;;;4.13;3.80;;;;;;;;;;5046335;28;20237;-56
2022/04/23 11:35:03;;;;;;;4.07;3.65;;;;;;;;;;5035294;28;20225;-56
2022/04/23 11:37:31;;;;;;;3.75;3.40;;;;;;;;;;5038145;28;20224;-56
2022/04/23 11:40:05;;;;;;;4.10;3.70;;;;;;;;;;5033543;28;20234;-56
2022/04/23 11:42:44;;;;;;;4.15;3.78;;;;;;;;;;5039887;28;20570;-57
2022/04/23 11:45:12;;;;;;;4.63;3.45;;;;;;;;;;5054222;28;20248;-57
2022/04/23 11:47:39;;;;;;;3.95;3.65;;;;;;;;;;5046617;28;20212;-57
2022/04/23 11:50:10;;;;;;;3.55;3.25;;;;;;;;;;5054802;28;20205;-57
2022/04/23 11:52:38;;;;;;;4.05;3.38;;;;;;;;;;5036139;28;20547;-57
2022/04/23 11:55:06;;;;;;;3.45;3.15;;;;;;;;;;5034946;28;20232;-57
2022/04/23 11:57:33;;;;;;;3.75;3.47;;;;;;;;;;5034202;28;20313;-57
2022/04/23 12:00:03;;;;;;;3.80;3.50;;;;;;;;;;5044702;28;20194;-57
2022/04/23 12:02:31;;;;;;;3.42;3.13;;;;;;;;;;5033159;28;20213;-57
2022/04/23 12:04:59;;;;;;;3.78;3.47;;;;;;;;;;5046642;28;20728;-56
2022/04/23 12:07:27;;;;;;;3.90;3.53;;;;;;;;;;5053684;28;20582;-57
2022/04/23 12:09:55;;;;;;;3.55;3.35;;;;;;;;;;5052786;28;20496;-57
2022/04/23 12:12:25;;;;;;;3.55;3.30;;;;;;;;;;5053872;28;20212;-57
2022/04/23 12:14:54;;;;;;;3.80;3.50;;;;;;;;;;5052845;28;20215;-57
2022/04/23 12:17:23;;;;;;;3.40;3.20;;;;;;;;;;5038579;28;20700;-57
2022/04/23 12:19:50;;;;;;;3.40;3.10;;;;;;;;;;5034167;28;20222;-57
2022/04/23 12:22:25;;;;;;;4.00;3.10;;;;;;;;;;5032189;28;20212;-57
2022/04/23 12:24:53;;;;;;;3.70;3.40;;;;;;;;;;5033282;28;20341;-57
2022/04/23 12:27:22;;;;;;;3.55;3.25;;;;;;;;;;5033228;28;20262;-57
2022/04/23 12:40:57;;;;;;;3.45;3.15;;;;;;;;;;5035984;28;20297;-57
2022/04/23 12:43:30;;;;;;;3.08;2.88;;;;;;;;;;5031552;28;20190;-56
2022/04/23 12:46:05;;;;;;;3.60;3.30;;;;;;;;;;5032130;28;20309;-56
2022/04/23 12:48:35;;;;;;;3.47;3.20;;;;;;;;;;5040876;28;20558;-57
2022/04/23 12:51:06;;;;;;;3.20;3.00;;;;;;;;;;5031507;28;20328;-57
2022/04/23 12:53:34;;;;;;;3.10;2.90;;;;;;;;;;5033443;28;20206;-57
2022/04/23 12:56:05;;;;;;;3.05;2.85;;;;;;;;;;5052297;28;20201;-57
2022/04/23 12:58:32;;;;;;;3.35;3.15;;;;;;;;;;5042895;28;20260;-57
2022/04/23 13:00:59;;;;;;;3.30;3.00;;;;;;;;;;5032347;28;20556;-57
2022/04/23 13:03:34;;;;;;;3.30;3.10;;;;;;;;;;5032241;28;20212;-57
2022/04/23 13:06:04;;;;;;;2.72;2.53;;;;;;;;;;5032398;28;20240;-57
2022/04/23 13:11:26;;;;;;;3.28;3.00;;;;;;;;;;5051808;28;20200;-56
2022/04/23 13:13:55;;;;;;;3.35;3.15;;;;;;;;;;5051041;28;20197;-56
2022/04/23 13:16:24;;;;;;;2.90;2.70;;;;;;;;;;5051038;28;20332;-57
2022/04/23 13:18:54;;;;;;;2.60;2.40;;;;;;;;;;5042693;28;20224;-58
2022/04/23 13:21:22;;;;;;;3.08;2.88;;;;;;;;;;5052071;28;20307;-56
2022/04/23 13:23:52;;;;;;;3.05;2.85;;;;;;;;;;5050107;28;20270;-56
2022/04/23 13:26:19;;;;;;;2.90;2.70;;;;;;;;;;5044398;28;20212;-56
2022/04/23 13:28:47;;;;;;;2.92;2.72;;;;;;;;;;5042000;28;20711;-56
2022/04/23 13:31:14;;;;;;;2.67;2.58;;;;;;;;;;5052135;28;20208;-56
2022/04/23 13:33:42;;;;;;;2.90;2.70;;;;;;;;;;5051729;28;20228;-56
2022/04/23 13:36:09;;;;;;;2.83;2.63;;;;;;;;;;5051340;28;20209;-57
2022/04/23 13:38:38;;;;;;;2.72;2.53;;;;;;;;;;5041294;28;20543;-56
2022/04/23 13:41:06;;;;;;;2.90;2.70;;;;;;;;;;5032601;28;20210;-57
2022/04/23 13:43:35;;;;;;;2.63;2.50;;;;;;;;;;5044428;28;20200;-56
2022/04/23 13:46:03;;;;;;;2.95;2.75;;;;;;;;;;5036723;28;20212;-57
2022/04/23 13:48:30;;;;;;;2.75;2.55;;;;;;;;;;5039954;28;20586;-56
2022/04/23 13:50:58;;;;;;;2.45;2.30;;;;;;;;;;5031221;28;20240;-57
2022/04/23 13:53:25;;;;;;;2.92;2.72;;;;;;;;;;5030568;28;20190;-57
2022/04/23 13:55:54;;;;;;;3.03;2.83;;;;;;;;;;5031685;28;20457;-57
2022/04/23 13:58:22;;;;;;;2.75;2.55;;;;;;;;;;5045509;28;20197;-57
2022/04/23 14:00:49;;;;;;;2.40;2.30;;;;;;;;;;5036005;28;20213;-57
2022/04/23 14:11:33;;;;;;;2.45;2.25;;;;;;;;;;5054599;28;20192;-57
2022/04/23 14:14:01;;;;;;;3.00;2.80;;;;;;;;;;5056201;28;20205;-57
2022/04/23 14:16:29;;;;;;;2.65;2.45;;;;;;;;;;5038080;28;20212;-56
2022/04/23 14:18:56;;;;;;;2.47;2.30;;;;;;;;;;5034983;28;20723;-57
2022/04/23 14:21:24;;;;;;;2.72;2.50;;;;;;;;;;5035653;28;20208;-57
2022/04/23 14:23:51;;;;;;;2.58;2.38;;;;;;;;;;5033646;28;20239;-56
2022/04/23 14:26:19;;;;;;;2.88;2.67;;;;;;;;;;5033766;28;20206;-57
2022/04/23 14:28:48;;;;;;;2.58;2.38;;;;;;;;;;5047618;28;20468;-57
2022/04/23 14:31:16;;;;;;;2.47;2.38;;;;;;;;;;5054418;28;20614;-57
2022/04/23 14:33:43;;;;;;;2.80;2.60;;;;;;;;;;5053166;28;20291;-57
2022/04/23 14:36:10;;;;;;;2.40;2.25;;;;;;;;;;5054811;28;20205;-57
2022/04/23 14:38:38;;;;;;;2.67;2.55;;;;;;;;;;5046752;28;20201;-57
2022/04/23 14:41:06;;;;;;;2.30;2.20;;;;;;;;;;5047105;28;20197;-57
2022/04/23 14:43:34;;;;;;;2.75;2.55;;;;;;;;;;5041965;28;20503;-57
2022/04/23 14:46:04;;;;;;;2.33;2.22;;;;;;;;;;5053792;28;20211;-57
2022/04/23 14:48:31;;;;;;;2.80;2.60;;;;;;;;;;5043081;28;20267;-57
2022/04/23 14:53:44;;;;;;;2.53;2.33;;;;;;;;;;5053513;28;20440;-57
2022/04/23 14:56:12;;;;;;;2.45;2.30;;;;;;;;;;5052731;28;20411;-57
2022/04/23 14:58:39;;;;;;;2.40;2.20;;;;;;;;;;5040755;28;20270;-56
2022/04/23 15:01:08;;;;;;;2.47;2.28;;;;;;;;;;5052327;28;20240;-57
2022/04/23 15:03:36;;;;;;;2.40;2.30;;;;;;;;;;5053169;28;20199;-57
2022/04/23 15:06:04;;;;;;;2.65;2.45;;;;;;;;;;5039024;28;20425;-57
2022/04/23 15:08:32;;;;;;;2.22;2.13;;;;;;;;;;5034872;28;20208;-57
2022/04/23 15:10:59;;;;;;;2.40;2.30;;;;;;;;;;5035020;28;20205;-57
2022/04/23 15:13:28;;;;;;;2.38;2.22;;;;;;;;;;5044756;28;20208;-56
2022/04/23 15:15:56;;;;;;;2.50;2.38;;;;;;;;;;5043026;28;20567;-57
2022/04/23 15:18:25;;;;;;;2.20;2.10;;;;;;;;;;5035528;28;20564;-57
2022/04/23 15:20:53;;;;;;;2.38;2.17;;;;;;;;;;5033559;28;20226;-56
2022/04/23 15:23:20;;;;;;;2.40;2.20;;;;;;;;;;5033371;28;20637;-57
2022/04/23 15:25:48;;;;;;;2.50;2.30;;;;;;;;;;5033519;28;20197;-56
2022/04/23 15:28:15;;;;;;;2.60;2.40;;;;;;;;;;5045370;28;20209;-56
2022/04/23 15:30:43;;;;;;;2.83;2.30;;;;;;;;;;5039964;28;20200;-57
2022/04/23 15:33:11;;;;;;;2.40;2.30;;;;;;;;;;5052224;28;20603;-57
2022/04/23 15:35:40;;;;;;;2.80;2.60;;;;;;;;;;5052304;28;20498;-57
2022/04/23 15:38:08;;;;;;;2.63;2.30;;;;;;;;;;5049854;28;20197;-57
2022/04/23 15:40:35;;;;;;;2.63;2.30;;;;;;;;;;5052175;28;20606;-57
2022/04/23 15:43:02;;;;;;;3.45;2.78;;;;;;;;;;5042893;28;20228;-57
2022/04/23 15:45:30;;;;;;;2.30;2.20;;;;;;;;;;5032482;28;20217;-57
2022/04/23 15:47:57;;;;;;;2.53;2.33;;;;;;;;;;5044337;28;20212;-56
2022/04/23 15:50:25;;;;;;;3.10;2.20;;;;;;;;;;5033479;28;20194;-57